Time;durP1;ratioP1;P1;durP2;ratioP2;P2;SDS_P1;SDS_P2;PMS_P1;PMS_P2;Temp;Humidity;BMP_temperature;BMP_pressure;BME280_temperature;BME280_humidity;BME280_pressure;Samples;Min_cycle;Max_cycle;Signal;HPM_P1;HPM_P2
2022/07/31 00:02:00;;;;;;;17.03;8.90;;;16.70;99.90;;;;;;5059606;28;20454;-81
2022/07/31 00:04:44;;;;;;;7.87;7.27;;;16.60;99.90;;;;;;5057950;28;20389;-81
2022/07/31 00:07:28;;;;;;;9.77;8.87;;;16.70;99.90;;;;;;5058783;28;20394;-79
2022/07/31 00:10:13;;;;;;;8.50;7.80;;;16.60;99.90;;;;;;5058988;28;20425;-81
2022/07/31 00:12:57;;;;;;;8.90;8.20;;;16.60;99.90;;;;;;5058458;28;20494;-81
2022/07/31 00:15:42;;;;;;;8.97;8.17;;;16.50;99.90;;;;;;5058638;28;20783;-81
2022/07/31 00:18:26;;;;;;;8.83;7.93;;;16.60;99.90;;;;;;5043784;28;20774;-81
2022/07/31 00:21:12;;;;;;;10.00;9.10;;;16.40;99.90;;;;;;5058774;28;20386;-79
2022/07/31 00:23:57;;;;;;;9.43;8.53;;;16.50;99.90;;;;;;5059630;28;20401;-80
2022/07/31 00:26:41;;;;;;;10.27;9.30;;;16.50;99.90;;;;;;5063033;28;20386;-81
2022/07/31 00:29:26;;;;;;;10.80;9.70;;;16.40;99.90;;;;;;5075265;28;20457;-80
2022/07/31 00:32:10;;;;;;;10.27;9.17;;;16.30;99.90;;;;;;5105310;28;20388;-81
2022/07/31 00:34:54;;;;;;;15.13;9.20;;;16.30;99.90;;;;;;5105124;28;20391;-80
2022/07/31 00:37:40;;;;;;;11.73;10.17;;;16.20;99.90;;;;;;5123080;28;20395;-80
2022/07/31 00:40:24;;;;;;;10.97;9.60;;;16.30;99.90;;;;;;5125293;28;20978;-81
2022/07/31 00:43:09;;;;;;;20.97;10.07;;;16.40;99.90;;;;;;5125698;28;20386;-78
2022/07/31 00:45:53;;;;;;;9.53;8.53;;;16.20;99.90;;;;;;5131284;28;20406;-78
2022/07/31 00:48:38;;;;;;;13.43;9.30;;;16.20;99.90;;;;;;5113567;28;20391;-82
2022/07/31 00:51:22;;;;;;;9.07;8.17;;;16.10;99.90;;;;;;5125396;28;20476;-81
2022/07/31 00:54:08;;;;;;;9.83;8.83;;;16.10;99.90;;;;;;5125458;28;20871;-80
2022/07/31 00:56:52;;;;;;;9.77;8.93;;;16.10;99.90;;;;;;5109717;28;20531;-81
2022/07/31 00:59:37;;;;;;;8.97;8.17;;;16.10;99.90;;;;;;5124875;28;20387;-81
2022/07/31 01:02:21;;;;;;;18.10;8.53;;;16.10;99.90;;;;;;5125021;28;20875;-82
2022/07/31 01:05:05;;;;;;;13.13;7.70;;;15.80;99.90;;;;;;5124790;28;20375;-80
2022/07/31 01:07:50;;;;;;;9.67;7.90;;;15.90;99.90;;;;;;5125574;28;20479;-81
2022/07/31 01:10:48;;;;;;;8.00;7.20;;;15.80;99.90;;;;;;5125009;28;20704;-80
2022/07/31 01:13:51;;;;;;;9.57;7.97;;;16.00;99.90;;;;;;5124784;28;20890;-81
2022/07/31 01:16:40;;;;;;;10.40;9.43;;;16.10;99.90;;;;;;5124660;28;20469;-81
2022/07/31 01:19:33;;;;;;;12.90;9.70;;;16.10;99.90;;;;;;5125394;28;20386;-82
2022/07/31 01:22:49;;;;;;;11.00;9.30;;;16.10;99.90;;;;;;5125138;28;20717;-80
2022/07/31 01:25:57;;;;;;;13.73;9.33;;;16.10;99.90;;;;;;5111716;28;20486;-81
2022/07/31 01:29:03;;;;;;;10.17;8.93;;;16.10;99.90;;;;;;5124771;28;20410;-81
2022/07/31 01:31:55;;;;;;;9.93;9.03;;;16.10;99.90;;;;;;5108758;28;20402;-81
2022/07/31 01:34:47;;;;;;;9.20;8.30;;;16.00;99.90;;;;;;5124546;28;20391;-81
2022/07/31 01:37:35;;;;;;;16.40;9.30;;;15.80;99.90;;;;;;5123811;28;20400;-81
2022/07/31 01:40:27;;;;;;;13.00;10.07;;;15.80;99.90;;;;;;5123850;28;20375;-82
2022/07/31 01:43:18;;;;;;;11.47;10.27;;;16.00;99.90;;;;;;5124147;28;20379;-80
2022/07/31 01:46:03;;;;;;;16.13;10.47;;;16.20;99.90;;;;;;5123899;28;20375;-81
2022/07/31 01:48:49;;;;;;;16.50;10.73;;;16.40;99.90;;;;;;5108474;28;20852;-80
2022/07/31 01:51:34;;;;;;;13.30;10.90;;;16.50;99.90;;;;;;5124536;28;20467;-80
2022/07/31 01:54:20;;;;;;;18.70;11.07;;;16.40;99.90;;;;;;5124790;28;20415;-81
2022/07/31 01:57:04;;;;;;;27.33;10.67;;;16.50;99.90;;;;;;5108738;28;20463;-81
2022/07/31 01:59:51;;;;;;;14.23;9.87;;;16.50;99.90;;;;;;5124342;28;20394;-80
2022/07/31 02:02:36;;;;;;;12.83;10.63;;;16.50;99.90;;;;;;5123938;28;20422;-80
2022/07/31 02:05:22;;;;;;;14.23;11.80;;;16.30;99.90;;;;;;5124175;28;20862;-81
2022/07/31 02:08:08;;;;;;;18.53;11.40;;;16.20;99.90;;;;;;5123468;28;20498;-81
2022/07/31 02:10:54;;;;;;;12.60;10.90;;;16.20;99.90;;;;;;5123953;28;20750;-80
2022/07/31 02:13:39;;;;;;;12.93;10.83;;;16.20;99.90;;;;;;5124127;28;20421;-80
2022/07/31 02:16:25;;;;;;;11.73;10.40;;;16.20;99.90;;;;;;5123948;28;20446;-80
2022/07/31 02:19:11;;;;;;;11.53;10.30;;;16.20;99.90;;;;;;5124193;28;20854;-80
2022/07/31 02:21:55;;;;;;;12.33;10.93;;;16.20;99.90;;;;;;5124218;28;20533;-80
2022/07/31 02:24:39;;;;;;;13.03;11.73;;;16.50;99.90;;;;;;5124003;28;20407;-81
2022/07/31 02:27:25;;;;;;;10.80;9.70;;;16.40;99.90;;;;;;5124439;28;20387;-81
2022/07/31 02:30:11;;;;;;;16.53;12.33;;;16.40;99.90;;;;;;5123622;28;20753;-81
2022/07/31 02:32:56;;;;;;;15.50;12.17;;;16.40;99.90;;;;;;5123299;28;20433;-80
2022/07/31 02:35:41;;;;;;;12.40;11.10;;;16.20;99.90;;;;;;5123146;28;20892;-80
2022/07/31 02:38:27;;;;;;;14.07;10.87;;;16.30;99.90;;;;;;5124206;28;20878;-81
2022/07/31 02:41:13;;;;;;;11.80;10.10;;;16.00;99.90;;;;;;5108303;28;20818;-80
2022/07/31 02:43:57;;;;;;;12.10;10.90;;;15.90;99.90;;;;;;5124199;28;20388;-78
2022/07/31 02:46:43;;;;;;;16.30;11.07;;;16.00;99.90;;;;;;5127870;28;20414;-78
2022/07/31 02:49:29;;;;;;;24.70;11.23;;;15.80;99.90;;;;;;5113249;28;20395;-79
2022/07/31 02:52:13;;;;;;;12.50;10.00;;;15.80;99.90;;;;;;5127120;28;20418;-79
2022/07/31 02:54:59;;;;;;;10.23;9.33;;;16.00;99.90;;;;;;5126814;28;20711;-79
2022/07/31 02:57:43;;;;;;;12.20;9.47;;;16.00;99.90;;;;;;5127884;28;20430;-79
2022/07/31 03:00:28;;;;;;;15.57;10.17;;;15.80;99.90;;;;;;5124574;28;20440;-82
2022/07/31 03:03:12;;;;;;;12.77;10.30;;;15.70;99.90;;;;;;5129534;28;20739;-81
2022/07/31 03:05:57;;;;;;;12.40;10.67;;;15.90;99.90;;;;;;5121804;28;20387;-81
2022/07/31 03:08:43;;;;;;;12.70;9.00;;;15.90;99.90;;;;;;5121870;28;20423;-80
2022/07/31 03:11:27;;;;;;;10.53;9.53;;;16.10;99.90;;;;;;5120593;28;20399;-81
2022/07/31 03:14:12;;;;;;;10.47;9.57;;;16.10;99.90;;;;;;5105965;28;20740;-81
2022/07/31 03:16:57;;;;;;;10.40;9.50;;;16.00;99.90;;;;;;5120820;28;20442;-81
2022/07/31 03:19:42;;;;;;;10.63;8.77;;;15.80;99.90;;;;;;5105715;28;20380;-79
2022/07/31 03:22:26;;;;;;;11.60;9.90;;;15.80;99.90;;;;;;5121803;28;20387;-81
2022/07/31 03:25:11;;;;;;;13.10;10.20;;;15.50;99.90;;;;;;5121057;28;20410;-80
2022/07/31 03:27:55;;;;;;;23.07;10.07;;;15.70;99.90;;;;;;5121005;28;20388;-78
2022/07/31 03:30:39;;;;;;;10.30;9.37;;;15.60;99.90;;;;;;5120762;28;20390;-81
2022/07/31 03:33:24;;;;;;;9.97;8.43;;;15.50;99.90;;;;;;5121036;28;20483;-80
2022/07/31 03:36:08;;;;;;;11.17;8.20;;;15.40;99.90;;;;;;5110119;28;20518;-81
2022/07/31 03:38:53;;;;;;;10.10;9.20;;;15.40;99.90;;;;;;5085663;28;20404;-81
2022/07/31 03:41:38;;;;;;;10.07;9.07;;;15.20;99.90;;;;;;5100775;28;20384;-79
2022/07/31 03:44:24;;;;;;;9.67;8.73;;;15.20;99.90;;;;;;5100912;28;20926;-81
2022/07/31 03:47:09;;;;;;;9.33;8.50;;;15.10;99.90;;;;;;5095574;28;20462;-82
2022/07/31 03:49:54;;;;;;;10.07;9.17;;;15.10;99.90;;;;;;5099333;28;20431;-79
2022/07/31 03:52:38;;;;;;;12.17;8.90;;;15.20;99.90;;;;;;5084076;28;20538;-81
2022/07/31 03:55:24;;;;;;;10.30;9.40;;;15.30;99.90;;;;;;5100044;28;20518;-81
2022/07/31 03:58:09;;;;;;;9.10;8.30;;;15.30;99.90;;;;;;5100514;28;20884;-82
2022/07/31 04:00:54;;;;;;;8.23;7.53;;;15.20;99.90;;;;;;5100483;28;20462;-81
2022/07/31 04:03:38;;;;;;;9.10;8.20;;;15.20;99.90;;;;;;5101248;28;20421;-81
2022/07/31 04:06:23;;;;;;;9.97;8.97;;;15.20;99.90;;;;;;5101465;28;20418;-80
2022/07/31 04:09:08;;;;;;;9.90;9.00;;;15.20;99.90;;;;;;5101394;28;20856;-80
2022/07/31 04:11:52;;;;;;;16.63;9.50;;;15.20;99.90;;;;;;5085742;28;20431;-81
2022/07/31 04:14:37;;;;;;;9.40;8.70;;;15.20;99.90;;;;;;5086262;28;20406;-81
2022/07/31 04:17:21;;;;;;;8.83;8.00;;;15.30;99.90;;;;;;5101191;28;20391;-81
2022/07/31 04:20:06;;;;;;;9.00;8.20;;;15.30;99.90;;;;;;5101361;28;20379;-80
2022/07/31 04:22:50;;;;;;;9.83;8.17;;;15.20;99.90;;;;;;5100867;28;20735;-81
2022/07/31 04:25:35;;;;;;;11.57;8.53;;;15.40;99.90;;;;;;5101403;28;20380;-81
2022/07/31 04:28:19;;;;;;;8.90;8.10;;;15.60;99.90;;;;;;5101139;28;20411;-81
2022/07/31 04:31:04;;;;;;;9.40;8.60;;;15.30;99.90;;;;;;5085137;28;20419;-80
2022/07/31 04:33:49;;;;;;;9.10;8.30;;;15.40;99.90;;;;;;5085986;28;20408;-81
2022/07/31 04:36:33;;;;;;;8.40;7.30;;;15.30;99.90;;;;;;5113102;28;20474;-81
2022/07/31 04:39:18;;;;;;;9.47;8.37;;;15.20;99.90;;;;;;5122010;28;20828;-81
2022/07/31 04:42:03;;;;;;;8.70;7.90;;;15.50;99.90;;;;;;5121618;28;20395;-81
2022/07/31 04:44:48;;;;;;;9.50;8.60;;;15.70;99.90;;;;;;5122146;28;20403;-81
2022/07/31 04:47:32;;;;;;;9.43;8.70;;;15.60;99.90;;;;;;5121854;28;20443;-81
2022/07/31 04:50:16;;;;;;;8.70;7.90;;;15.70;99.90;;;;;;5121618;28;20906;-81
2022/07/31 04:53:01;;;;;;;8.67;7.87;;;15.70;99.90;;;;;;5106540;28;20463;-82
2022/07/31 04:56:32;;;;;;;9.63;8.07;;;15.70;99.90;;;;;;5106398;28;20558;-82
2022/07/31 04:58:49;;;;;;;10.43;8.97;;;15.90;99.90;;;;;;5121864;28;20402;-82
2022/07/31 05:01:36;;;;;;;12.27;11.17;;;15.70;99.90;;;;;;5123661;28;20387;-79
2022/07/31 05:04:21;;;;;;;10.90;9.80;;;15.90;99.90;;;;;;5126617;28;20731;-79
2022/07/31 05:07:05;;;;;;;10.87;9.80;;;16.10;99.90;;;;;;5126944;28;20387;-78
2022/07/31 05:09:49;;;;;;;10.93;9.80;;;16.20;99.90;;;;;;5127252;28;20391;-79
2022/07/31 05:12:33;;;;;;;11.13;10.03;;;15.90;99.90;;;;;;5130279;28;20398;-79
2022/07/31 05:15:18;;;;;;;11.37;10.27;;;15.90;99.90;;;;;;5130500;28;20442;-79
2022/07/31 05:18:02;;;;;;;10.40;9.47;;;16.00;99.90;;;;;;5130837;28;20995;-79
2022/07/31 05:20:46;;;;;;;11.83;10.63;;;16.00;99.90;;;;;;5127119;28;20461;-81
2022/07/31 05:23:31;;;;;;;13.00;11.40;;;15.90;99.90;;;;;;5125331;28;20946;-81
2022/07/31 05:26:17;;;;;;;11.03;9.80;;;16.00;99.90;;;;;;5125150;28;20388;-81
2022/07/31 05:29:02;;;;;;;10.40;9.40;;;16.10;99.90;;;;;;5125391;28;20518;-81
2022/07/31 05:31:47;;;;;;;10.23;8.97;;;16.10;99.90;;;;;;5125918;28;20451;-81
2022/07/31 05:34:32;;;;;;;12.80;11.53;;;16.20;99.90;;;;;;5126284;28;20383;-78
2022/07/31 05:37:16;;;;;;;10.57;9.57;;;16.30;99.90;;;;;;5126662;28;20470;-81
2022/07/31 05:40:00;;;;;;;10.63;9.57;;;16.30;99.90;;;;;;5126785;28;20461;-78
2022/07/31 05:42:45;;;;;;;11.40;10.20;;;16.20;99.90;;;;;;5127476;28;20899;-79
2022/07/31 05:45:30;;;;;;;13.00;11.70;;;16.10;99.90;;;;;;5127743;28;20478;-80
2022/07/31 05:48:16;;;;;;;12.30;10.07;;;16.10;99.90;;;;;;5125504;28;20382;-81
2022/07/31 05:51:00;;;;;;;12.57;11.37;;;16.30;99.90;;;;;;5124739;28;20399;-81
2022/07/31 05:53:45;;;;;;;14.93;11.80;;;16.40;99.90;;;;;;5125271;28;20399;-81
2022/07/31 05:56:29;;;;;;;12.77;11.47;;;16.40;99.90;;;;;;5125222;28;20458;-81
2022/07/31 05:59:13;;;;;;;17.60;13.03;;;16.10;99.90;;;;;;5125806;28;20450;-79
2022/07/31 06:01:57;;;;;;;13.83;12.23;;;16.40;99.90;;;;;;5126188;28;20382;-81
2022/07/31 06:04:41;;;;;;;15.00;13.50;;;16.50;99.90;;;;;;5125291;28;20383;-80
2022/07/31 06:07:26;;;;;;;15.70;14.10;;;16.80;99.90;;;;;;5126015;28;20387;-79
2022/07/31 06:10:10;;;;;;;13.60;12.40;;;16.90;99.90;;;;;;5125592;28;20395;-79
2022/07/31 06:12:55;;;;;;;15.70;14.00;;;16.60;99.90;;;;;;5124398;28;20490;-81
2022/07/31 06:15:41;;;;;;;17.30;14.93;;;16.60;99.90;;;;;;5124361;28;20446;-82
2022/07/31 06:18:25;;;;;;;14.60;12.23;;;16.90;99.90;;;;;;5123130;28;20380;-81
2022/07/31 06:21:11;;;;;;;18.13;14.67;;;16.70;99.90;;;;;;5122539;28;20380;-82
2022/07/31 06:23:55;;;;;;;16.20;14.60;;;16.80;99.90;;;;;;5122896;28;20387;-81
2022/07/31 06:26:39;;;;;;;15.33;13.80;;;16.90;99.90;;;;;;5123167;28;20429;-81
2022/07/31 06:29:24;;;;;;;18.90;14.03;;;16.90;99.90;;;;;;5122188;28;20395;-81
2022/07/31 06:32:08;;;;;;;18.77;15.50;;;17.00;99.90;;;;;;5122679;28;20684;-81
2022/07/31 06:34:52;;;;;;;17.13;15.33;;;17.20;99.90;;;;;;5122525;28;20474;-81
2022/07/31 06:37:37;;;;;;;17.73;15.93;;;17.40;99.90;;;;;;5122079;28;20391;-81
2022/07/31 06:40:21;;;;;;;18.53;16.63;;;17.60;99.90;;;;;;5121302;28;20387;-80
2022/07/31 06:43:05;;;;;;;17.07;15.20;;;17.90;99.90;;;;;;5121413;28;20397;-80
2022/07/31 06:45:50;;;;;;;16.37;14.70;;;17.20;99.90;;;;;;5106022;28;20387;-80
2022/07/31 06:48:34;;;;;;;15.93;14.23;;;17.40;99.90;;;;;;5121190;28;20380;-81
2022/07/31 06:51:18;;;;;;;14.97;13.77;;;17.40;99.90;;;;;;5122439;28;20921;-79
2022/07/31 06:54:05;;;;;;;16.10;14.40;;;17.60;99.90;;;;;;5121624;28;20423;-82
2022/07/31 06:56:50;;;;;;;15.87;13.47;;;17.70;99.90;;;;;;5121571;28;20487;-81
2022/07/31 06:59:34;;;;;;;15.73;14.27;;;17.90;99.90;;;;;;5121733;28;20451;-81
2022/07/31 07:02:18;;;;;;;15.97;14.40;;;18.00;99.90;;;;;;5121383;28;20414;-81
2022/07/31 07:05:03;;;;;;;15.50;14.23;;;18.10;99.90;;;;;;5121239;28;20449;-81
2022/07/31 07:07:48;;;;;;;15.47;13.97;;;18.30;99.90;;;;;;5121363;28;20831;-81
2022/07/31 07:10:32;;;;;;;15.77;14.27;;;18.40;99.90;;;;;;5121401;28;20449;-82
2022/07/31 07:13:17;;;;;;;13.93;12.63;;;18.40;99.90;;;;;;5121914;28;20429;-80
2022/07/31 07:16:00;;;;;;;14.77;13.33;;;18.30;99.90;;;;;;5121183;28;20441;-79
2022/07/31 07:18:45;;;;;;;15.10;13.60;;;18.40;99.90;;;;;;5121527;28;20391;-82
2022/07/31 07:21:30;;;;;;;14.40;13.10;;;18.40;99.90;;;;;;5121782;28;20383;-81
2022/07/31 07:24:14;;;;;;;14.20;13.00;;;18.30;99.90;;;;;;5122246;28;20717;-81
2022/07/31 07:26:58;;;;;;;14.90;13.70;;;18.30;99.90;;;;;;5121972;28;20384;-81
2022/07/31 07:29:42;;;;;;;16.83;15.23;;;18.70;99.90;;;;;;5125404;28;20403;-79
2022/07/31 07:32:27;;;;;;;15.53;14.10;;;18.20;99.90;;;;;;5124156;28;20413;-80
2022/07/31 07:35:11;;;;;;;18.13;15.10;;;18.40;99.90;;;;;;5124134;28;20392;-79
2022/07/31 07:37:56;;;;;;;15.70;14.10;;;18.70;99.90;;;;;;5124896;28;20419;-77
2022/07/31 07:40:40;;;;;;;15.90;13.97;;;18.90;99.90;;;;;;5124571;28;20387;-79
2022/07/31 07:43:24;;;;;;;14.47;12.83;;;18.80;99.90;;;;;;5110146;28;20379;-79
2022/07/31 07:46:09;;;;;;;14.00;12.67;;;19.10;99.90;;;;;;5126320;28;20403;-79
2022/07/31 07:48:53;;;;;;;12.87;11.77;;;19.40;99.90;;;;;;5124516;28;20379;-79
2022/07/31 07:51:37;;;;;;;15.53;12.60;;;19.20;99.90;;;;;;5124447;28;20911;-80
2022/07/31 07:54:22;;;;;;;16.07;12.50;;;19.50;99.90;;;;;;5125253;28;20395;-79
2022/07/31 07:57:06;;;;;;;11.23;10.30;;;19.80;99.90;;;;;;5113156;28;20526;-78
2022/07/31 07:59:51;;;;;;;12.37;11.20;;;19.80;99.90;;;;;;5125717;28;20437;-78
2022/07/31 08:02:36;;;;;;;12.33;11.07;;;20.00;99.90;;;;;;5126980;28;20399;-79
2022/07/31 08:05:21;;;;;;;11.00;10.00;;;20.20;99.90;;;;;;5126400;28;20954;-79
2022/07/31 08:08:05;;;;;;;9.97;9.17;;;20.30;99.90;;;;;;5123446;28;20387;-80
2022/07/31 08:10:49;;;;;;;9.83;8.97;;;20.50;99.90;;;;;;5122277;28;20528;-82
2022/07/31 08:13:33;;;;;;;12.00;9.77;;;20.20;99.90;;;;;;5122862;28;20392;-81
2022/07/31 08:16:19;;;;;;;10.07;9.17;;;20.30;99.90;;;;;;5121319;28;20957;-80
2022/07/31 08:19:03;;;;;;;10.03;9.00;;;20.40;99.90;;;;;;5121792;28;20875;-82
2022/07/31 08:22:07;;;;;;;9.97;9.17;;;20.60;99.90;;;;;;5121499;28;20390;-81
2022/07/31 08:24:52;;;;;;;9.63;8.63;;;20.70;99.90;;;;;;5058658;28;20436;-82
2022/07/31 08:27:36;;;;;;;9.30;8.40;;;20.60;99.90;;;;;;5059202;28;20389;-81
2022/07/31 08:30:20;;;;;;;7.83;7.07;;;20.70;99.90;;;;;;5059202;28;20449;-81
2022/07/31 08:33:04;;;;;;;10.17;9.33;;;20.90;99.90;;;;;;5059313;28;20513;-82
2022/07/31 08:35:49;;;;;;;9.40;8.47;;;21.20;99.90;;;;;;5046086;28;20469;-82
2022/07/31 08:38:35;;;;;;;9.50;7.80;;;21.30;99.90;;;;;;5061390;28;20405;-81
2022/07/31 08:41:20;;;;;;;9.47;8.60;;;21.50;99.90;;;;;;5060343;28;20451;-82
2022/07/31 08:44:05;;;;;;;7.70;6.60;;;21.70;99.90;;;;;;5047305;28;20398;-81
2022/07/31 08:46:53;;;;;;;6.87;6.30;;;21.80;99.90;;;;;;5064944;28;20394;-82
2022/07/31 08:49:41;;;;;;;7.47;6.87;;;21.90;99.90;;;;;;5064148;28;20408;-82
2022/07/31 08:52:31;;;;;;;6.50;6.00;;;22.20;99.90;;;;;;5049817;28;20441;-82
2022/07/31 08:55:16;;;;;;;8.33;5.87;;;22.10;99.90;;;;;;5087172;28;20394;-82
2022/07/31 08:58:00;;;;;;;5.73;5.27;;;22.10;99.90;;;;;;5126842;28;20493;-80
2022/07/31 09:00:45;;;;;;;5.60;5.20;;;22.30;99.90;;;;;;5126082;28;20423;-82
2022/07/31 09:03:29;;;;;;;8.27;6.93;;;22.30;99.90;;;;;;5126408;28;20410;-81
2022/07/31 09:06:14;;;;;;;6.53;5.10;;;22.50;99.90;;;;;;5110685;28;20444;-81
2022/07/31 09:08:59;;;;;;;6.93;5.00;;;22.50;99.90;;;;;;5128547;28;20406;-82
2022/07/31 09:11:46;;;;;;;7.30;5.63;;;22.70;99.90;;;;;;5129598;28;20391;-81
2022/07/31 09:14:34;;;;;;;6.27;5.73;;;22.90;99.90;;;;;;5128479;28;20414;-80
2022/07/31 09:17:37;;;;;;;5.93;5.37;;;22.70;99.90;;;;;;5125946;28;20445;-83
2022/07/31 09:20:23;;;;;;;8.33;7.53;;;23.00;99.90;;;;;;5127329;28;20391;-84
2022/07/31 09:23:09;;;;;;;5.73;5.23;;;22.90;99.90;;;;;;5127362;28;20419;-83
2022/07/31 09:25:58;;;;;;;5.27;4.87;;;23.10;99.90;;;;;;5126422;28;20395;-83
2022/07/31 09:28:46;;;;;;;5.93;5.33;;;23.10;99.90;;;;;;5127345;28;20402;-83
2022/07/31 09:31:32;;;;;;;6.40;5.20;;;23.20;99.90;;;;;;5126873;28;20476;-83
2022/07/31 09:34:25;;;;;;;6.10;5.30;;;23.40;99.90;;;;;;5126043;28;20437;-81
2022/07/31 09:37:15;;;;;;;6.07;5.67;;;23.50;99.90;;;;;;5111127;28;20489;-82
2022/07/31 09:39:59;;;;;;;5.57;5.07;;;23.60;99.90;;;;;;5126874;28;20383;-82
2022/07/31 09:42:47;;;;;;;5.80;5.30;;;23.70;99.90;;;;;;5109606;28;20387;-82
2022/07/31 09:45:31;;;;;;;7.60;6.13;;;24.20;99.90;;;;;;5125129;28;20433;-82
2022/07/31 09:48:15;;;;;;;6.37;5.77;;;24.40;99.90;;;;;;5109808;28;20724;-82
2022/07/31 09:51:03;;;;;;;5.80;5.13;;;24.30;99.90;;;;;;5124741;28;20414;-82
2022/07/31 09:53:55;;;;;;;6.10;5.50;;;24.50;99.90;;;;;;5124734;28;20491;-82
2022/07/31 09:56:39;;;;;;;5.60;5.10;;;25.00;99.90;;;;;;5123215;28;20516;-82
2022/07/31 09:59:25;;;;;;;5.70;5.03;;;25.50;99.90;;;;;;5109244;28;20825;-82
2022/07/31 10:02:13;;;;;;;6.90;6.20;;;26.00;99.90;;;;;;5109150;28;20433;-82
2022/07/31 10:04:58;;;;;;;4.60;4.30;;;26.10;99.90;;;;;;5124371;28;20417;-83
2022/07/31 10:07:45;;;;;;;5.20;4.33;;;25.30;99.90;;;;;;5094624;28;20464;-82
2022/07/31 10:10:30;;;;;;;5.43;5.03;;;25.40;99.90;;;;;;5124269;28;20398;-82
2022/07/31 10:13:19;;;;;;;4.10;3.80;;;25.50;99.90;;;;;;5124430;28;20440;-81
2022/07/31 10:16:05;;;;;;;5.60;5.10;;;25.90;99.90;;;;;;5125104;28;20566;-82
2022/07/31 10:18:58;;;;;;;3.83;3.53;;;26.40;99.90;;;;;;5125197;28;20467;-81
2022/07/31 10:21:54;;;;;;;4.20;3.87;;;26.80;99.90;;;;;;5123322;28;20415;-82
2022/07/31 10:24:44;;;;;;;4.50;4.10;;;26.30;99.90;;;;;;5123296;28;20789;-80
2022/07/31 10:27:32;;;;;;;4.50;4.10;;;26.30;99.90;;;;;;5111147;28;20417;-82
2022/07/31 10:30:16;;;;;;;4.70;4.30;;;26.30;99.90;;;;;;5126079;28;20452;-83
2022/07/31 10:33:05;;;;;;;5.90;4.10;;;26.70;99.90;;;;;;5125418;28;20386;-84
2022/07/31 10:36:11;;;;;;;4.67;4.37;;;26.70;99.90;;;;;;5110128;28;20470;-82
2022/07/31 10:39:04;;;;;;;6.70;4.17;;;26.50;99.90;;;;;;5124922;28;20395;-83
2022/07/31 10:41:59;;;;;;;4.53;4.03;;;25.80;99.90;;;;;;5124859;28;20455;-81
2022/07/31 10:44:49;;;;;;;7.83;5.13;;;26.00;99.90;;;;;;5125486;28;20471;-82
2022/07/31 10:47:34;;;;;;;4.87;4.47;;;26.10;99.90;;;;;;5125872;28;20391;-82
2022/07/31 10:50:21;;;;;;;4.43;4.13;;;26.10;99.90;;;;;;5123944;28;20548;-82
2022/07/31 10:53:12;;;;;;;4.53;4.13;;;26.00;99.90;;;;;;5124112;28;20411;-82
2022/07/31 10:56:12;;;;;;;6.70;4.93;;;25.80;99.90;;;;;;5123162;28;20481;-81
2022/07/31 10:59:00;;;;;;;4.73;4.33;;;26.10;99.90;;;;;;5122034;28;20382;-80
2022/07/31 11:01:49;;;;;;;4.53;4.23;;;26.60;99.90;;;;;;5104564;28;20390;-81
2022/07/31 11:04:34;;;;;;;4.33;4.00;;;26.80;99.90;;;;;;5120614;28;20738;-80
2022/07/31 11:07:21;;;;;;;4.87;4.40;;;26.80;99.90;;;;;;5121099;28;20440;-79
2022/07/31 11:10:12;;;;;;;4.53;4.10;;;26.50;99.90;;;;;;5106812;28;20394;-82
2022/07/31 11:13:11;;;;;;;4.40;4.00;;;26.90;99.90;;;;;;5121731;28;20925;-81
2022/07/31 11:16:04;;;;;;;4.30;3.97;;;27.00;99.90;;;;;;5106907;28;20451;-82
2022/07/31 11:19:01;;;;;;;4.00;3.70;;;27.50;99.90;;;;;;5121915;28;20463;-82
2022/07/31 11:21:46;;;;;;;3.70;3.30;;;26.80;99.90;;;;;;5090782;28;20464;-82
2022/07/31 11:24:31;;;;;;;3.67;3.37;;;26.20;99.90;;;;;;5105913;28;20387;-82
2022/07/31 11:27:15;;;;;;;3.63;3.23;;;26.70;99.90;;;;;;5105767;28;20390;-78
2022/07/31 11:30:05;;;;;;;4.37;3.87;;;27.50;97.80;;;;;;5123992;28;20432;-82
2022/07/31 11:32:52;;;;;;;4.50;4.10;;;28.10;95.20;;;;;;5107850;28;20428;-83
2022/07/31 11:35:37;;;;;;;3.47;3.17;;;28.00;93.80;;;;;;5123857;28;20478;-82
2022/07/31 11:38:28;;;;;;;3.40;2.80;;;28.20;91.40;;;;;;5093775;28;20464;-83
2022/07/31 11:41:12;;;;;;;5.20;3.07;;;28.40;93.90;;;;;;5122261;28;20402;-83
2022/07/31 11:43:56;;;;;;;2.90;2.70;;;29.70;92.10;;;;;;5122557;28;20454;-83
2022/07/31 11:46:41;;;;;;;3.80;3.50;;;30.20;90.00;;;;;;5122301;28;20421;-83
2022/07/31 11:49:26;;;;;;;3.83;3.10;;;29.00;84.80;;;;;;5123387;28;20379;-82
2022/07/31 11:52:11;;;;;;;2.93;2.63;;;29.50;83.70;;;;;;5123445;28;20474;-81
2022/07/31 11:55:14;;;;;;;2.50;2.30;;;29.70;79.40;;;;;;5122332;28;20386;-81
2022/07/31 11:57:59;;;;;;;3.50;3.30;;;29.90;82.50;;;;;;5123851;28;20202;-81
2022/07/31 12:00:50;;;;;;;2.97;2.78;;;30.60;79.60;;;;;;5122283;28;20160;-81
2022/07/31 12:03:37;;;;;;;2.72;2.53;;;30.90;77.90;;;;;;5092053;28;20203;-83
2022/07/31 12:06:23;;;;;;;3.25;2.95;;;30.70;72.90;;;;;;5123732;28;20373;-82
2022/07/31 12:09:07;;;;;;;3.15;2.90;;;29.70;73.50;;;;;;5123047;28;20175;-82
2022/07/31 12:11:52;;;;;;;2.60;2.50;;;29.40;74.40;;;;;;5108513;28;20177;-79
2022/07/31 12:14:38;;;;;;;3.13;2.87;;;29.00;85.70;;;;;;5126732;28;20225;-80
2022/07/31 12:17:22;;;;;;;2.57;2.37;;;29.20;78.20;;;;;;5126928;28;20518;-79
2022/07/31 12:20:08;;;;;;;2.93;2.67;;;29.90;78.50;;;;;;5098444;28;20418;-81
2022/07/31 12:22:58;;;;;;;2.67;2.47;;;30.00;74.60;;;;;;5130904;28;20194;-83
2022/07/31 12:25:45;;;;;;;3.03;2.80;;;29.80;76.50;;;;;;5117529;28;20398;-82
2022/07/31 12:28:29;;;;;;;3.80;2.80;;;29.70;74.70;;;;;;5113629;28;20386;-80
2022/07/31 12:31:14;;;;;;;3.97;3.23;;;29.70;75.60;;;;;;5105612;28;20472;-81
2022/07/31 12:33:59;;;;;;;3.57;3.10;;;29.80;77.20;;;;;;5130016;28;20382;-81
2022/07/31 12:36:43;;;;;;;2.97;2.77;;;30.20;76.20;;;;;;5124852;28;20497;-80
2022/07/31 12:39:30;;;;;;;3.80;3.50;;;30.70;77.90;;;;;;5125705;28;20844;-83
2022/07/31 12:42:26;;;;;;;3.27;2.80;;;30.40;74.20;;;;;;5127379;28;20387;-82
2022/07/31 12:45:10;;;;;;;2.87;2.67;;;30.10;75.90;;;;;;5129850;28;20405;-82
2022/07/31 12:47:55;;;;;;;4.07;3.20;;;29.70;75.10;;;;;;5125684;28;20294;-80
2022/07/31 12:50:39;;;;;;;3.87;2.60;;;29.10;77.50;;;;;;5108966;28;20390;-83
2022/07/31 12:53:25;;;;;;;3.00;2.80;;;29.10;79.80;;;;;;5124012;28;20398;-82
2022/07/31 12:56:11;;;;;;;3.50;3.07;;;29.00;79.90;;;;;;5123650;28;20487;-82
2022/07/31 12:58:55;;;;;;;3.73;3.43;;;29.00;81.20;;;;;;5123947;28;20390;-83
2022/07/31 13:01:39;;;;;;;3.90;3.53;;;29.30;78.60;;;;;;5123161;28;20524;-83
2022/07/31 13:04:24;;;;;;;2.87;2.67;;;30.20;76.60;;;;;;5123161;28;20430;-82
2022/07/31 13:07:08;;;;;;;3.70;3.37;;;30.30;73.80;;;;;;5123268;28;20699;-82
2022/07/31 13:09:52;;;;;;;3.00;2.80;;;30.00;73.70;;;;;;5107698;28;20460;-82
2022/07/31 13:12:37;;;;;;;2.90;2.50;;;30.10;72.10;;;;;;5123695;28;20428;-80
2022/07/31 13:15:28;;;;;;;8.93;3.40;;;29.80;73.70;;;;;;5122981;28;20418;-83
2022/07/31 13:18:12;;;;;;;3.30;3.00;;;29.40;74.30;;;;;;5123640;28;20386;-82
2022/07/31 13:20:57;;;;;;;4.00;3.60;;;29.00;73.90;;;;;;5123841;28;20426;-80
2022/07/31 13:23:42;;;;;;;4.63;3.17;;;28.70;75.00;;;;;;5124107;28;20402;-81
2022/07/31 13:26:28;;;;;;;3.20;2.90;;;28.40;76.50;;;;;;5124310;28;20391;-81
2022/07/31 13:29:12;;;;;;;3.40;3.10;;;27.90;78.70;;;;;;5123031;28;20437;-82
2022/07/31 13:31:57;;;;;;;3.20;2.73;;;28.10;76.50;;;;;;5122826;28;20744;-81
2022/07/31 13:34:41;;;;;;;4.07;3.67;;;28.00;77.20;;;;;;5122816;28;20467;-82
2022/07/31 13:37:25;;;;;;;3.60;3.30;;;28.10;76.80;;;;;;5106765;28;20481;-80
2022/07/31 13:40:10;;;;;;;3.20;3.00;;;28.20;76.70;;;;;;5108060;28;20429;-83
2022/07/31 13:42:54;;;;;;;3.20;2.90;;;28.20;78.60;;;;;;5106991;28;20397;-81
2022/07/31 13:45:38;;;;;;;4.50;3.20;;;28.20;77.20;;;;;;5123928;28;20447;-81
2022/07/31 13:48:23;;;;;;;3.20;3.00;;;28.20;76.90;;;;;;5123654;28;20394;-82
2022/07/31 13:51:08;;;;;;;5.53;3.00;;;28.20;78.10;;;;;;5124388;28;20387;-82
2022/07/31 13:53:52;;;;;;;3.80;2.70;;;28.20;78.20;;;;;;5122635;28;20901;-82
2022/07/31 13:56:38;;;;;;;3.43;3.13;;;28.10;78.60;;;;;;5123017;28;20466;-80
2022/07/31 13:59:22;;;;;;;3.50;3.20;;;28.00;77.70;;;;;;5122153;28;20414;-80
2022/07/31 14:02:07;;;;;;;3.10;2.83;;;27.80;79.00;;;;;;5122833;28;20379;-81
2022/07/31 14:04:51;;;;;;;3.10;2.90;;;27.70;77.20;;;;;;5123019;28;20882;-81
2022/07/31 14:07:36;;;;;;;2.90;2.70;;;27.80;79.70;;;;;;5123937;28;20382;-81
2022/07/31 14:10:22;;;;;;;3.83;3.53;;;27.90;77.90;;;;;;5122984;28;20460;-83
2022/07/31 14:13:06;;;;;;;5.83;3.13;;;28.00;76.50;;;;;;5122646;28;20901;-82
2022/07/31 14:15:51;;;;;;;3.33;3.03;;;28.00;77.00;;;;;;5107742;28;20973;-82